.
WxDataArchive / Data Records for 2012-03-13
2012-03-12 March 2012 2012-03-14

Data Records for Tuesday, 13 March 2012

Time	Temp	Chill	HIndex	Humid	Dewpt	 Wind 	HiWind	WindDir	Rain 	Barom 
-----	----	-----	------	-----	-----	------	------	-------	-----	----- 
00:00	61.5	61.5	61.5	85	56.9	3	8	248	0.00	29.853 
00:05	61.5	61.5	61.5	85	56.9	2	6	248	0.00	29.853 
00:10	61.5	61.5	61.5	85	56.9	3	7	248	0.00	29.853 
00:15	61.5	61.5	61.5	85	56.9	3	6	248	0.00	29.861 
00:20	61.5	61.5	61.5	85	56.9	2	5	248	0.00	29.861 
00:25	61.5	61.5	61.5	85	56.9	2	7	248	0.00	29.861 
00:30	61.5	61.5	61.5	85	56.9	2	5	248	0.00	29.862 
00:35	61.5	61.5	61.5	85	56.9	3	7	248	0.00	29.862 
00:40	61.6	61.6	61.6	85	57.0	2	5	248	0.00	29.862 
00:45	61.6	61.6	61.6	85	57.0	2	6	248	0.00	29.873 
00:50	61.6	61.6	61.6	85	57.0	2	6	248	0.00	29.873 
00:55	61.6	61.6	61.6	84	56.7	1	4	248	0.00	29.873 
01:00	61.8	61.8	61.8	84	56.9	3	6	248	0.00	29.877 
01:05	61.8	61.8	61.8	82	56.2	2	6	248	0.00	29.877 
01:10	61.8	61.8	61.8	83	56.6	3	9	248	0.00	29.877 
01:15	61.8	61.8	61.8	82	56.2	2	5	270	0.00	29.889 
01:20	61.6	61.6	61.6	82	56.0	2	4	270	0.00	29.889 
01:25	61.3	61.3	61.3	81	55.4	1	3	270	0.00	29.889 
01:30	61.2	61.2	61.2	81	55.3	1	3	270	0.00	29.891 
01:35	61.0	61.0	61.0	80	54.8	1	4	248	0.00	29.891 
01:40	60.7	60.7	60.7	79	54.1	2	5	248	0.00	29.891 
01:45	60.5	60.5	60.5	77	53.2	1	3	248	0.00	29.893 
01:50	60.4	60.4	60.4	74	52.1	1	3	248	0.00	29.893 
01:55	60.2	60.2	60.2	74	51.9	1	3	248	0.00	29.893 
02:00	60.2	60.2	60.2	73	51.5	2	5	270	0.00	29.901 
02:05	60.2	60.2	60.2	72	51.1	1	3	248	0.00	29.901 
02:10	60.1	60.1	60.1	72	51.0	2	4	248	0.00	29.901 
02:15	60.1	60.1	60.1	72	51.0	1	3	248	0.00	29.908 
02:20	59.9	59.9	59.9	71	50.5	1	3	248	0.00	29.908 
02:25	59.9	59.9	59.9	70	50.1	1	3	248	0.00	29.908 
02:30	59.9	59.9	59.9	70	50.1	1	3	248	0.00	29.914 
02:35	59.8	59.8	59.8	70	50.0	0	2	248	0.00	29.914 
02:40	59.8	59.8	59.8	71	50.4	0	1	248	0.00	29.914 
02:45	59.6	59.6	59.6	73	50.9	0	2	248	0.00	29.923 
02:50	59.3	59.3	59.3	71	49.9	1	4	248	0.00	29.923 
02:55	59.3	59.3	59.3	71	49.9	0	2	248	0.00	29.923 
03:00	59.2	59.2	59.2	70	49.4	0	1	248	0.00	29.928 
03:05	59.0	59.0	59.0	70	49.2	0	2	248	0.00	29.928 
03:10	58.9	58.9	58.9	70	49.1	0	2	248	0.00	29.928 
03:15	58.9	58.9	58.9	70	49.1	0	2	248	0.00	29.933 
03:20	58.7	58.7	58.7	69	48.6	0	2	248	0.00	29.933 
03:25	58.7	58.7	58.7	69	48.6	0	1	248	0.00	29.933 
03:30	58.6	58.6	58.6	70	48.8	0	1	248	0.00	29.935 
03:35	58.3	58.3	58.3	70	48.6	0	1	248	0.00	29.935 
03:40	58.1	58.1	58.1	71	48.7	0	1	248	0.00	29.935 
03:45	58.0	58.0	58.0	72	49.0	0	1	248	0.00	29.939 
03:50	57.8	57.8	57.8	72	48.8	0	1	248	0.00	29.939 
03:55	57.5	57.5	57.5	73	48.9	0	1	248	0.00	29.939 
04:00	57.2	57.2	57.2	73	48.6	0	1	248	0.00	29.939 
04:05	56.9	56.9	56.9	74	48.7	1	3	248	0.00	29.939 
04:10	56.9	56.9	56.9	74	48.7	1	2	248	0.00	29.939 
04:15	56.6	56.6	56.6	74	48.4	0	1	248	0.00	29.943 
04:20	56.3	56.3	56.3	75	48.5	0	1	248	0.00	29.943 
04:25	56.0	56.0	56.0	75	48.2	0	1	248	0.00	29.943 
04:30	55.7	55.7	55.7	76	48.3	0	0	---	0.00	29.948 
04:35	55.4	55.4	55.4	77	48.3	0	2	248	0.00	29.948 
04:40	55.4	55.4	55.4	77	48.3	1	3	248	0.00	29.948 
04:45	55.4	55.4	55.4	78	48.7	1	3	248	0.00	29.955 
04:50	55.4	55.4	55.4	78	48.7	1	3	248	0.00	29.955 
04:55	55.4	55.4	55.4	77	48.3	1	3	270	0.00	29.955 
05:00	55.4	55.4	55.4	77	48.3	1	3	270	0.00	29.957 
05:05	55.3	55.3	55.3	77	48.2	1	3	270	0.00	29.957 
05:10	55.1	55.1	55.1	78	48.4	0	2	270	0.00	29.957 
05:15	55.0	55.0	55.0	78	48.3	0	2	270	0.00	29.960 
05:20	54.8	54.8	54.8	78	48.1	0	2	270	0.00	29.960 
05:25	54.7	54.7	54.7	79	48.3	0	2	270	0.00	29.960 
05:30	54.4	54.4	54.4	79	48.0	0	1	270	0.00	29.968 
05:35	54.1	54.1	54.1	79	47.7	0	1	270	0.00	29.968 
05:40	53.9	53.9	53.9	80	47.9	0	0	---	0.00	29.968 
05:45	53.5	53.5	53.5	81	47.8	0	1	270	0.00	29.975 
05:50	53.3	53.3	53.3	81	47.6	0	0	---	0.00	29.975 
05:55	53.1	53.1	53.1	82	47.8	0	1	270	0.00	29.975 
06:00	53.1	53.1	53.1	83	48.1	0	2	270	0.00	29.977 
06:05	52.9	52.9	52.9	84	48.2	0	2	270	0.00	29.977 
06:10	52.9	52.9	52.9	84	48.2	0	1	270	0.00	29.977 
06:15	52.8	52.8	52.8	84	48.1	0	1	270	0.00	29.985 
06:20	52.8	52.8	52.8	84	48.1	0	1	270	0.00	29.985 
06:25	52.6	52.6	52.6	84	47.9	0	0	---	0.00	29.985 
06:30	52.3	52.3	52.3	84	47.6	0	0	---	0.00	29.989 
06:35	52.2	52.2	52.2	84	47.5	0	0	---	0.00	29.989 
06:40	51.9	51.9	51.9	85	47.5	0	0	---	0.00	29.989 
06:45	51.9	51.9	51.9	85	47.5	0	1	270	0.00	29.993 
06:50	51.7	51.7	51.7	85	47.3	0	1	270	0.00	29.993 
06:55	51.6	51.6	51.6	85	47.2	0	1	270	0.00	29.993 
07:00	51.6	51.6	51.6	86	47.5	0	1	270	0.00	29.997 
07:05	51.4	51.4	51.4	86	47.4	0	1	270	0.00	29.997 
07:10	51.4	51.4	51.4	86	47.4	0	1	270	0.00	29.997 
07:15	51.4	51.4	51.4	86	47.4	0	2	225	0.00	30.008 
07:20	51.4	51.4	51.4	86	47.4	0	2	225	0.00	30.008 
07:25	51.4	51.4	51.4	86	47.4	0	2	225	0.00	30.008 
07:30	51.3	51.3	51.3	86	47.3	0	2	225	0.00	30.010 
07:35	51.3	51.3	51.3	86	47.3	0	3	225	0.00	30.010 
07:40	51.3	51.3	51.3	86	47.3	0	2	225	0.00	30.010 
07:45	51.3	51.3	51.3	86	47.3	0	2	225	0.00	30.010 
07:50	51.3	51.3	51.3	86	47.3	0	3	225	0.00	30.010 
07:55	51.3	51.3	51.3	86	47.3	0	2	225	0.00	30.010 
08:00	51.1	51.1	51.1	86	47.1	0	2	225	0.00	30.020 
08:05	51.1	51.1	51.1	86	47.1	0	2	225	0.00	30.020 
08:10	51.1	51.1	51.1	86	47.1	0	1	225	0.00	30.020 
08:15	51.3	51.3	51.3	86	47.3	0	2	225	0.00	30.026 
08:20	51.3	51.3	51.3	86	47.3	0	2	225	0.00	30.026 
08:25	51.3	51.3	51.3	86	47.3	0	1	225	0.00	30.026 
08:30	51.6	51.6	51.6	85	47.2	0	2	225	0.00	30.027 
08:35	51.7	51.7	51.7	85	47.3	0	3	225	0.00	30.027 
08:40	52.0	52.0	52.0	85	47.6	1	3	248	0.00	30.027 
08:45	52.3	52.3	52.3	84	47.6	1	3	248	0.00	30.026 
08:50	52.6	52.6	52.6	84	47.9	1	2	248	0.00	30.026 
08:55	52.9	52.9	52.9	83	47.9	1	4	248	0.00	30.026 
09:00	53.2	53.2	53.2	82	47.8	1	4	248	0.00	30.030 
09:05	53.5	53.5	53.5	81	47.8	1	4	248	0.00	30.030 
09:10	53.9	53.9	53.9	80	47.9	2	4	270	0.00	30.030 
09:15	54.2	54.2	54.2	80	48.2	1	4	248	0.00	30.034 
09:20	54.5	54.5	54.5	79	48.1	1	4	248	0.00	30.034 
09:25	54.8	54.8	54.8	78	48.1	1	2	248	0.00	30.034 
09:30	55.3	55.3	55.3	77	48.2	1	3	248	0.00	30.033 
09:35	55.7	55.7	55.7	77	48.6	1	4	248	0.00	30.033 
09:40	56.0	56.0	56.0	76	48.5	1	5	248	0.00	30.033 
09:45	56.3	56.3	56.3	75	48.5	2	5	248	0.00	30.036 
09:50	56.7	56.7	56.7	74	48.5	1	4	248	0.00	30.036 
09:55	57.0	57.0	57.0	73	48.4	3	6	248	0.00	30.036 
10:00	57.3	57.3	57.3	73	48.7	2	5	248	0.00	30.038 
10:05	57.8	57.8	57.8	72	48.8	2	4	248	0.00	30.038 
10:10	58.1	58.1	58.1	70	48.4	2	4	248	0.00	30.038 
10:15	58.4	58.4	58.4	70	48.7	2	5	248	0.00	30.036 
10:20	58.7	58.7	58.7	69	48.6	2	5	248	0.00	30.036 
10:25	59.0	59.0	59.0	69	48.8	2	4	248	0.00	30.036 
10:30	59.3	59.3	59.3	67	48.3	2	4	248	0.00	30.036 
10:35	59.8	59.8	59.8	68	49.2	2	5	248	0.00	30.036 
10:40	60.1	60.1	60.1	67	49.1	2	5	248	0.00	30.036 
10:45	60.2	60.2	60.2	66	48.8	2	4	248	0.00	30.035 
10:50	60.5	60.5	60.5	65	48.7	3	6	248	0.00	30.035 
10:55	60.9	60.9	60.9	65	49.1	1	6	248	0.00	30.035 
11:00	61.2	61.2	61.2	64	48.9	2	7	225	0.00	30.033 
11:05	61.5	61.5	61.5	63	48.8	2	5	248	0.00	30.033 
11:10	61.8	61.8	61.8	62	48.6	3	6	248	0.00	30.033 
11:15	62.0	62.0	62.0	63	49.3	2	4	270	0.00	30.033 
11:20	62.1	62.1	62.1	62	48.9	2	7	270	0.00	30.033 
11:25	62.4	62.4	62.4	62	49.2	2	4	248	0.00	30.033 
11:30	62.7	62.7	62.7	62	49.5	2	4	248	0.00	30.033 
11:35	62.9	62.9	62.9	61	49.2	3	5	270	0.00	30.033 
11:40	62.7	62.7	62.7	61	49.1	3	5	270	0.00	30.033 
11:45	62.9	62.9	62.9	61	49.2	3	7	248	0.00	30.033 
11:50	63.1	63.1	63.1	60	49.0	3	7	248	0.00	30.033 
11:55	63.2	63.2	63.2	60	49.1	3	6	248	0.00	30.033 
12:00	63.4	63.4	63.4	59	48.8	3	10	248	0.00	30.034 
12:05	63.5	63.5	63.5	59	48.9	4	6	270	0.00	30.034 
12:10	63.7	63.7	63.7	60	49.5	3	5	270	0.00	30.034 
12:15	64.0	64.0	64.0	59	49.4	3	11	248	0.00	30.034 
12:20	64.0	64.0	64.0	59	49.4	3	7	270	0.00	30.034 
12:25	64.3	64.3	64.3	59	49.7	3	7	270	0.00	30.034 
12:30	64.5	64.5	64.5	59	49.8	3	5	270	0.00	30.037 
12:35	64.8	64.8	64.8	58	49.7	3	5	248	0.00	30.037 
12:40	65.0	65.0	65.0	58	49.9	3	6	270	0.00	30.037 
12:45	65.3	65.3	65.3	59	50.6	2	5	270	0.00	30.039 
12:50	65.5	65.5	65.5	58	50.3	3	6	248	0.00	30.039 
12:55	65.6	65.6	65.6	58	50.4	3	6	270	0.00	30.039 
13:00	66.0	66.0	66.0	57	50.3	3	5	270	0.00	30.041 
13:05	66.0	66.0	66.0	55	49.4	4	9	248	0.00	30.041 
13:10	66.1	66.1	66.1	55	49.5	3	7	270	0.00	30.041 
13:15	66.0	66.0	66.0	55	49.4	4	7	270	0.00	30.045 
13:20	66.1	66.1	66.1	56	49.9	4	6	270	0.00	30.045 
13:25	66.3	66.3	66.3	56	50.1	3	5	270	0.00	30.045 
13:30	66.4	66.4	66.4	53	48.7	4	9	270	0.00	30.043 
13:35	66.6	66.6	66.6	56	50.4	3	6	292	0.00	30.043 
13:40	67.1	67.1	67.1	50	47.8	3	7	270	0.00	30.043 
13:45	67.1	67.1	67.1	50	47.8	4	6	270	0.00	30.046 
13:50	67.3	67.3	67.3	49	47.5	3	5	270	0.00	30.046 
13:55	67.6	67.6	67.6	46	46.1	3	6	270	0.00	30.046 
14:00	67.8	67.8	67.8	46	46.3	3	5	270	0.00	30.042 
14:05	67.8	67.8	67.8	46	46.3	3	6	270	0.00	30.042 
14:10	67.9	67.9	67.9	44	45.2	3	8	248	0.00	30.042 
14:15	68.3	68.3	68.3	45	46.1	3	7	270	0.00	30.040 
14:20	68.3	68.3	68.3	41	43.7	3	6	270	0.00	30.040 
14:25	68.1	68.1	68.1	43	44.7	3	6	270	0.00	30.040 
14:30	68.1	68.1	68.1	42	44.1	3	6	270	0.00	30.040 
14:35	68.1	68.1	68.1	41	43.5	3	7	270	0.00	30.040 
14:40	68.4	68.4	68.4	40	43.1	3	6	270	0.00	30.040 
14:45	68.6	68.6	68.6	43	45.2	2	4	248	0.00	30.035 
14:50	68.6	68.6	68.6	37	41.3	3	6	270	0.00	30.035 
14:55	68.8	68.8	68.8	39	42.8	3	5	292	0.00	30.035 
15:00	68.9	68.9	68.9	40	43.6	2	5	315	0.00	30.036 
15:05	68.6	68.6	68.6	39	42.6	3	7	270	0.00	30.036 
15:10	68.6	68.6	68.6	41	44.0	2	5	270	0.00	30.036 
15:15	68.1	68.1	68.1	41	43.5	3	6	270	0.00	30.037 
15:20	67.8	67.8	67.8	42	43.9	3	7	315	0.00	30.037 
15:25	67.8	67.8	67.8	43	44.5	2	6	248	0.00	30.037 
15:30	67.8	67.8	67.8	40	42.6	3	6	270	0.00	30.037 
15:35	67.3	67.3	67.3	39	41.5	3	6	315	0.00	30.037 
15:40	67.1	67.1	67.1	39	41.3	2	5	270	0.00	30.037 
15:45	67.3	67.3	67.3	39	41.5	3	6	315	0.00	30.037 
15:50	67.3	67.3	67.3	39	41.5	3	5	338	0.00	30.037 
15:55	67.6	67.6	67.6	38	41.1	3	6	270	0.00	30.037 
16:00	67.6	67.6	67.6	37	40.4	3	5	270	0.00	30.037 
16:05	67.4	67.4	67.4	37	40.2	3	5	270	0.00	30.037 
16:10	67.3	67.3	67.3	37	40.1	3	5	270	0.00	30.037 
16:15	67.4	67.4	67.4	36	39.5	3	6	270	0.00	30.049 
16:20	67.6	67.6	67.6	35	39.0	3	5	270	0.00	30.049 
16:25	67.4	67.4	67.4	35	38.8	3	6	270	0.00	30.049 
16:30	67.6	67.6	67.6	37	40.4	3	9	315	0.00	30.051 
16:35	67.4	67.4	67.4	37	40.2	3	7	270	0.00	30.051 
16:40	67.3	67.3	67.3	38	40.8	3	5	270	0.00	30.051 
16:45	66.9	66.9	66.9	37	39.8	3	5	270	0.00	30.053 
16:50	66.8	66.8	66.8	35	38.3	2	5	292	0.00	30.053 
16:55	66.9	66.9	66.9	35	38.4	2	5	270	0.00	30.053 
17:00	66.6	66.6	66.6	30	34.2	3	9	315	0.00	30.057 
17:05	66.3	66.3	66.3	30	33.9	2	5	270	0.00	30.057 
17:10	66.3	66.3	66.3	28	32.2	2	6	292	0.00	30.057 
17:15	66.3	66.3	66.3	27	31.3	2	5	292	0.00	30.062 
17:20	66.4	66.4	66.4	28	32.3	2	6	292	0.00	30.062 
17:25	66.4	66.4	66.4	28	32.3	2	4	270	0.00	30.062 
17:30	66.4	66.4	66.4	27	31.4	2	5	270	0.00	30.062 
17:35	66.4	66.4	66.4	25	29.5	2	4	270	0.00	30.062 
17:40	66.4	66.4	66.4	25	29.5	2	3	270	0.00	30.062 
17:45	66.4	66.4	66.4	25	29.5	2	4	248	0.00	30.064 
17:50	66.3	66.3	66.3	25	29.4	2	6	248	0.00	30.064 
17:55	66.1	66.1	66.1	22	26.2	3	5	270	0.00	30.064 
18:00	66.0	66.0	66.0	23	27.1	2	5	315	0.00	30.067 
18:05	66.0	66.0	66.0	23	27.1	2	5	270	0.00	30.067 
18:10	66.0	66.0	66.0	23	27.1	1	5	270	0.00	30.067 
18:15	66.0	66.0	66.0	24	28.2	1	4	270	0.00	30.067 
18:20	65.8	65.8	65.8	23	27.0	2	3	270	0.00	30.067 
18:25	65.5	65.5	65.5	22	25.6	2	5	270	0.00	30.067 
18:30	65.3	65.3	65.3	23	26.6	2	6	338	0.00	30.069 
18:35	65.3	65.3	65.3	24	27.6	1	3	292	0.00	30.069 
18:40	65.2	65.2	65.2	25	28.5	1	3	315	0.00	30.069 
18:45	65.0	65.0	65.0	25	28.3	1	4	315	0.00	30.073 
18:50	64.8	64.8	64.8	25	28.2	1	3	270	0.00	30.073 
18:55	64.5	64.5	64.5	26	28.9	1	4	270	0.00	30.073 
19:00	64.5	64.5	64.5	26	28.9	1	2	270	0.00	30.076 
19:05	64.2	64.2	64.2	26	28.6	1	2	270	0.00	30.076 
19:10	63.9	63.9	63.9	26	28.3	0	2	292	0.00	30.076 
19:15	63.5	63.5	63.5	26	28.0	0	2	292	0.00	30.086 
19:20	63.2	63.2	63.2	26	27.7	0	2	292	0.00	30.086 
19:25	62.9	62.9	62.9	26	27.5	0	1	292	0.00	30.086 
19:30	62.6	62.6	62.6	27	28.2	0	1	292	0.00	30.089 
19:35	62.3	62.3	62.3	27	27.9	0	1	292	0.00	30.089 
19:40	62.0	62.0	62.0	27	27.6	0	1	292	0.00	30.089 
19:45	61.6	61.6	61.6	27	27.3	0	1	292	0.00	30.093 
19:50	61.2	61.2	61.2	27	27.0	0	1	292	0.00	30.093 
19:55	60.7	60.7	60.7	27	26.5	0	0	---	0.00	30.093 
20:00	60.2	60.2	60.2	28	27.0	0	0	---	0.00	30.097 
20:05	59.3	59.3	59.3	29	27.1	0	0	---	0.00	30.097 
20:10	58.6	58.6	58.6	30	27.3	0	0	---	0.00	30.097 
20:15	57.8	57.8	57.8	31	27.4	0	0	---	0.00	30.096 
20:20	56.9	56.9	56.9	33	28.1	0	0	---	0.00	30.096 
20:25	56.3	56.3	56.3	34	28.3	0	0	---	0.00	30.096 
20:30	55.7	55.7	55.7	36	29.2	0	0	---	0.00	30.097 
20:35	55.1	55.1	55.1	36	28.6	0	0	---	0.00	30.097 
20:40	54.5	54.5	54.5	38	29.4	0	0	---	0.00	30.097 
20:45	53.9	53.9	53.9	39	29.5	0	0	---	0.00	30.102 
20:50	53.3	53.3	53.3	39	29.0	0	0	---	0.00	30.102 
20:55	52.8	52.8	52.8	42	30.3	0	0	---	0.00	30.102 
21:00	52.3	52.3	52.3	42	29.9	0	0	---	0.00	30.104 
21:05	51.7	51.7	51.7	42	29.4	0	0	---	0.00	30.104 
21:10	51.4	51.4	51.4	44	30.2	0	0	---	0.00	30.104 
21:15	51.0	51.0	51.0	45	30.4	0	0	---	0.00	30.104 
21:20	50.7	50.7	50.7	46	30.7	0	0	---	0.00	30.104 
21:25	50.2	50.2	50.2	46	30.2	0	0	---	0.00	30.104 
21:30	49.9	49.9	49.9	46	30.0	0	0	---	0.00	30.109 
21:35	49.5	49.5	49.5	46	29.6	0	0	---	0.00	30.109 
21:40	49.2	49.2	49.2	49	30.9	0	0	---	0.00	30.109 
21:45	48.8	48.8	48.8	50	31.0	0	0	---	0.00	30.113 
21:50	48.3	48.3	48.3	49	30.0	0	0	---	0.00	30.113 
21:55	47.9	47.9	47.9	50	30.2	0	0	---	0.00	30.113 
22:00	47.6	47.6	47.6	51	30.4	0	0	---	0.00	30.117 
22:05	47.3	47.3	47.3	51	30.1	0	0	---	0.00	30.117 
22:10	47.0	47.0	47.0	51	29.8	0	0	---	0.00	30.117 
22:15	46.7	46.7	46.7	52	30.0	0	0	---	0.00	30.112 
22:20	46.5	46.5	46.5	54	30.8	0	0	---	0.00	30.112 
22:25	46.4	46.4	46.4	55	31.1	0	0	---	0.00	30.112 
22:30	46.1	46.1	46.1	55	30.8	0	0	---	0.00	30.119 
22:35	46.0	46.0	46.0	56	31.2	0	0	---	0.00	30.119 
22:40	45.7	45.7	45.7	55	30.5	0	0	---	0.00	30.119 
22:45	45.7	45.7	45.7	56	30.9	0	0	---	0.00	30.118 
22:50	45.5	45.5	45.5	57	31.2	0	0	---	0.00	30.118 
22:55	45.4	45.4	45.4	58	31.5	0	0	---	0.00	30.118 
23:00	45.2	45.2	45.2	59	31.7	0	0	---	0.00	30.116 
23:05	45.2	45.2	45.2	59	31.7	0	0	---	0.00	30.116 
23:10	44.9	44.9	44.9	59	31.5	0	0	---	0.00	30.116 
23:15	44.8	44.8	44.8	60	31.8	0	0	---	0.00	30.112 
23:20	44.6	44.6	44.6	61	32.0	0	0	---	0.00	30.112 
23:25	44.3	44.3	44.3	60	31.3	0	0	---	0.00	30.112 
23:30	44.2	44.2	44.2	61	31.6	0	0	---	0.00	30.117 
23:35	44.1	44.1	44.1	62	31.9	0	0	---	0.00	30.117 
23:40	43.9	43.9	43.9	62	31.7	0	0	---	0.00	30.117 
23:45	43.8	43.8	43.8	62	31.6	0	0	---	0.00	30.116 
23:50	43.6	43.6	43.6	63	31.8	0	0	---	0.00	30.116 
23:55	43.6	43.6	43.6	64	32.2	0	0	---	0.00	30.116 

CoCoRaHS
IN-AL-39
A2 Web Hosting
Creative Commons License
GoDaddy
search engine by freefind advanced

loaded 2018-11-13 23:25:45 • last modified 2010-11-18 10:43:29
Privacy PolicyDisclaimer
• wx.awcolley.com is powered by PmWiki v.2002016 •
• all content (unless otherwise noted) © 2018 A W Colley